Time;durP1;ratioP1;P1;durP2;ratioP2;P2;SDS_P1;SDS_P2;PMS_P1;PMS_P2;Temp;Humidity;BMP_temperature;BMP_pressure;BME280_temperature;BME280_humidity;BME280_pressure;Samples;Min_cycle;Max_cycle;Signal;HPM_P1;HPM_P2
2021/12/02 00:00:23;;;;;;;1.40;1.30;;;;;;;;;;6155804;23;20277;-85
2021/12/02 00:02:50;;;;;;;2.20;1.10;;;;;;;;;;6157395;23;20178;-85
2021/12/02 00:05:17;;;;;;;1.80;1.57;;;;;;;;;;6155864;23;20229;-85
2021/12/02 00:07:44;;;;;;;1.80;1.33;;;;;;;;;;6158875;23;20181;-85
2021/12/02 00:10:12;;;;;;;2.50;1.70;;;;;;;;;;6159405;23;20187;-84
2021/12/02 00:12:39;;;;;;;5.60;3.83;;;;;;;;;;6159383;23;20198;-84
2021/12/02 00:15:12;;;;;;;5.03;2.90;;;;;;;;;;6159669;23;20171;-86
2021/12/02 00:17:41;;;;;;;3.23;2.40;;;;;;;;;;6159939;23;20226;-84
2021/12/02 00:23:11;;;;;;;2.33;1.67;;;;;;;;;;6161525;23;20174;-84
2021/12/02 00:25:39;;;;;;;1.77;1.33;;;;;;;;;;6161382;23;20250;-84
2021/12/02 00:28:06;;;;;;;1.87;1.20;;;;;;;;;;6160682;23;20198;-83
2021/12/02 00:30:34;;;;;;;3.30;1.60;;;;;;;;;;6161265;23;20206;-85
2021/12/02 00:33:03;;;;;;;2.60;1.27;;;;;;;;;;6161287;23;20174;-84
2021/12/02 00:35:31;;;;;;;1.40;1.27;;;;;;;;;;6161415;23;20190;-84
2021/12/02 00:38:00;;;;;;;1.57;1.37;;;;;;;;;;6160961;23;20174;-83
2021/12/02 00:40:27;;;;;;;2.83;1.53;;;;;;;;;;6161971;23;20218;-84
2021/12/02 00:42:54;;;;;;;2.27;1.30;;;;;;;;;;6160755;23;20182;-86
2021/12/02 00:45:22;;;;;;;1.40;1.30;;;;;;;;;;6160606;23;20175;-84
2021/12/02 00:47:49;;;;;;;2.80;1.37;;;;;;;;;;6161254;23;20198;-84
2021/12/02 00:50:19;;;;;;;1.43;1.33;;;;;;;;;;6160869;23;20659;-84
2021/12/02 00:52:47;;;;;;;2.17;1.40;;;;;;;;;;6160411;23;20193;-87
2021/12/02 00:55:15;;;;;;;1.67;1.47;;;;;;;;;;6161006;23;20174;-84
2021/12/02 00:57:43;;;;;;;1.50;1.40;;;;;;;;;;6160686;23;20186;-87
2021/12/02 01:00:11;;;;;;;2.70;1.40;;;;;;;;;;6160654;23;20604;-84
2021/12/02 01:02:38;;;;;;;2.23;1.27;;;;;;;;;;6160998;23;20194;-84
2021/12/02 01:05:06;;;;;;;1.47;1.23;;;;;;;;;;6161081;23;20171;-85
2021/12/02 01:07:35;;;;;;;2.33;1.30;;;;;;;;;;6160278;23;20221;-84
2021/12/02 01:10:02;;;;;;;1.83;1.30;;;;;;;;;;6160489;23;20190;-84
2021/12/02 01:12:30;;;;;;;3.03;1.20;;;;;;;;;;6160863;23;20245;-85
2021/12/02 01:14:57;;;;;;;2.47;1.20;;;;;;;;;;6160698;23;20182;-84
2021/12/02 01:17:24;;;;;;;1.73;1.30;;;;;;;;;;6160879;23;20194;-84
2021/12/02 01:19:51;;;;;;;3.70;1.50;;;;;;;;;;6161107;23;20210;-85
2021/12/02 01:22:19;;;;;;;1.27;1.20;;;;;;;;;;6159808;23;20191;-85
2021/12/02 01:24:50;;;;;;;1.77;1.30;;;;;;;;;;6160498;23;20190;-85
2021/12/02 01:27:18;;;;;;;2.50;1.20;;;;;;;;;;6160230;23;20178;-85
2021/12/02 01:29:46;;;;;;;1.80;1.30;;;;;;;;;;6160596;23;20191;-84
2021/12/02 01:32:14;;;;;;;1.13;1.13;;;;;;;;;;6159749;23;20197;-85
2021/12/02 01:34:44;;;;;;;1.87;1.30;;;;;;;;;;6160422;23;20178;-85
2021/12/02 01:37:12;;;;;;;1.60;1.23;;;;;;;;;;6160104;23;20171;-85
2021/12/02 01:39:39;;;;;;;1.80;1.20;;;;;;;;;;6160394;23;20225;-85
2021/12/02 01:42:12;;;;;;;2.10;1.10;;;;;;;;;;6161389;23;20189;-84
2021/12/02 01:44:41;;;;;;;3.00;1.50;;;;;;;;;;6160696;23;20237;-85
2021/12/02 01:47:12;;;;;;;1.50;1.30;;;;;;;;;;6161809;23;20197;-85
2021/12/02 01:49:43;;;;;;;1.33;1.20;;;;;;;;;;6160774;23;20195;-85
2021/12/02 01:52:11;;;;;;;1.77;1.30;;;;;;;;;;6160660;23;20174;-84
2021/12/02 01:54:43;;;;;;;2.63;1.40;;;;;;;;;;6160804;23;20181;-85
2021/12/02 01:57:19;;;;;;;1.50;1.00;;;;;;;;;;6160915;23;20174;-86
2021/12/02 01:59:49;;;;;;;1.43;1.10;;;;;;;;;;6160076;23;20194;-85
2021/12/02 02:02:19;;;;;;;2.30;1.40;;;;;;;;;;6160851;23;20167;-86
2021/12/02 02:04:46;;;;;;;1.13;1.00;;;;;;;;;;6161094;23;20221;-85
2021/12/02 02:07:14;;;;;;;1.67;1.20;;;;;;;;;;6160675;23;20190;-85
2021/12/02 02:09:42;;;;;;;1.10;0.90;;;;;;;;;;6159765;23;20209;-85
2021/12/02 02:12:10;;;;;;;1.33;0.90;;;;;;;;;;6159412;23;20191;-85
2021/12/02 02:14:39;;;;;;;3.87;1.40;;;;;;;;;;6159677;23;20202;-86
2021/12/02 02:17:12;;;;;;;1.53;0.80;;;;;;;;;;6160479;23;20173;-84
2021/12/02 02:19:39;;;;;;;1.90;1.00;;;;;;;;;;6159230;23;20198;-86
2021/12/02 02:22:08;;;;;;;2.40;1.07;;;;;;;;;;6159079;23;20167;-84
2021/12/02 02:24:35;;;;;;;1.90;1.00;;;;;;;;;;6159311;23;20171;-84
2021/12/02 02:27:04;;;;;;;1.33;0.80;;;;;;;;;;6160674;23;20231;-84
2021/12/02 02:29:31;;;;;;;2.40;1.17;;;;;;;;;;6160449;23;20171;-84
2021/12/02 02:31:59;;;;;;;1.03;0.97;;;;;;;;;;6160645;23;20178;-84
2021/12/02 02:34:26;;;;;;;2.50;1.57;;;;;;;;;;6160654;23;20198;-85
2021/12/02 02:36:55;;;;;;;1.00;0.90;;;;;;;;;;6160329;23;20190;-85
2021/12/02 02:39:24;;;;;;;1.53;1.20;;;;;;;;;;6159931;23;20190;-85
2021/12/02 02:41:57;;;;;;;3.87;0.90;;;;;;;;;;6160138;23;20183;-84
2021/12/02 02:44:25;;;;;;;0.80;0.80;;;;;;;;;;6159214;23;20175;-85
2021/12/02 02:46:53;;;;;;;1.57;0.90;;;;;;;;;;6159736;23;20218;-84
2021/12/02 02:49:20;;;;;;;1.23;0.90;;;;;;;;;;6160518;23;20174;-85
2021/12/02 02:51:48;;;;;;;1.17;0.90;;;;;;;;;;6160675;23;20256;-84
2021/12/02 02:54:16;;;;;;;1.00;0.90;;;;;;;;;;6161085;23;20166;-86
2021/12/02 02:56:49;;;;;;;0.90;0.80;;;;;;;;;;6160808;23;20209;-84
2021/12/02 02:59:24;;;;;;;0.80;0.80;;;;;;;;;;6159171;23;20190;-84
2021/12/02 03:02:01;;;;;;;0.80;0.70;;;;;;;;;;6159506;23;20246;-85
2021/12/02 03:04:35;;;;;;;0.73;0.73;;;;;;;;;;6159302;23;20179;-84
2021/12/02 03:07:05;;;;;;;0.83;0.83;;;;;;;;;;6159046;23;20193;-84
2021/12/02 03:09:51;;;;;;;2.13;1.07;;;;;;;;;;6158783;23;20193;-85
2021/12/02 03:12:25;;;;;;;0.87;0.87;;;;;;;;;;6158373;23;20171;-85
2021/12/02 03:17:36;;;;;;;1.00;1.00;;;;;;;;;;6157058;23;20171;-84
2021/12/02 03:20:04;;;;;;;1.57;1.10;;;;;;;;;;6158984;23;20227;-85
2021/12/02 03:22:32;;;;;;;0.80;0.80;;;;;;;;;;6158669;23;20233;-84
2021/12/02 03:24:59;;;;;;;1.50;0.90;;;;;;;;;;6157671;23;20198;-84
2021/12/02 03:27:28;;;;;;;1.10;1.00;;;;;;;;;;6157149;23;20233;-85
2021/12/02 03:29:55;;;;;;;1.10;1.00;;;;;;;;;;6156666;23;20207;-84
2021/12/02 03:32:22;;;;;;;1.33;0.90;;;;;;;;;;6157227;23;20194;-85
2021/12/02 03:34:50;;;;;;;1.73;1.10;;;;;;;;;;6157951;23;20171;-84
2021/12/02 03:37:19;;;;;;;0.93;0.90;;;;;;;;;;6157202;23;20190;-85
2021/12/02 03:39:46;;;;;;;1.57;1.00;;;;;;;;;;6156742;23;20194;-84
2021/12/02 03:42:14;;;;;;;1.20;0.97;;;;;;;;;;6157256;23;20254;-84
2021/12/02 03:44:43;;;;;;;2.27;1.00;;;;;;;;;;6156852;23;20186;-86
2021/12/02 03:47:10;;;;;;;1.60;0.90;;;;;;;;;;6157447;23;20170;-85
2021/12/02 03:49:40;;;;;;;1.67;1.20;;;;;;;;;;6157666;23;20246;-84
2021/12/02 03:52:08;;;;;;;1.07;0.90;;;;;;;;;;6157604;23;20197;-85
2021/12/02 03:54:35;;;;;;;1.20;1.10;;;;;;;;;;6159051;23;20173;-85
2021/12/02 03:57:03;;;;;;;1.03;0.97;;;;;;;;;;6159776;23;20210;-84
2021/12/02 03:59:32;;;;;;;1.80;1.00;;;;;;;;;;6159222;23;20190;-85
2021/12/02 04:02:01;;;;;;;1.33;0.93;;;;;;;;;;6160297;23;20167;-84
2021/12/02 04:04:28;;;;;;;1.10;1.00;;;;;;;;;;6160643;23;20209;-85
2021/12/02 04:06:55;;;;;;;1.53;1.00;;;;;;;;;;6161764;23;20562;-85
2021/12/02 04:09:25;;;;;;;1.17;1.00;;;;;;;;;;6160836;23;20182;-85
2021/12/02 04:11:57;;;;;;;1.47;1.10;;;;;;;;;;6160192;23;20178;-84
2021/12/02 04:14:27;;;;;;;1.53;1.10;;;;;;;;;;6160658;23;20174;-85
2021/12/02 04:16:58;;;;;;;1.67;1.00;;;;;;;;;;6160377;23;20178;-85
2021/12/02 04:19:26;;;;;;;2.43;1.00;;;;;;;;;;6159955;23;20215;-85
2021/12/02 04:21:54;;;;;;;3.13;1.00;;;;;;;;;;6160185;23;20171;-84
2021/12/02 04:24:22;;;;;;;1.17;1.07;;;;;;;;;;6160106;23;20167;-85
2021/12/02 04:26:49;;;;;;;1.40;1.03;;;;;;;;;;6161178;23;20198;-84
2021/12/02 04:29:17;;;;;;;1.47;1.10;;;;;;;;;;6160705;23;20174;-85
2021/12/02 04:31:45;;;;;;;1.20;1.00;;;;;;;;;;6160010;23;20170;-86
2021/12/02 04:34:12;;;;;;;1.27;1.20;;;;;;;;;;6161097;23;20174;-85
2021/12/02 04:36:41;;;;;;;1.77;1.23;;;;;;;;;;6161206;23;20174;-85
2021/12/02 04:39:08;;;;;;;1.40;1.17;;;;;;;;;;6160576;23;20179;-84
2021/12/02 04:41:36;;;;;;;2.40;1.30;;;;;;;;;;6163255;23;20199;-84
2021/12/02 04:44:04;;;;;;;1.73;1.30;;;;;;;;;;6165107;23;20174;-85
2021/12/02 04:46:31;;;;;;;2.50;1.27;;;;;;;;;;6165907;23;20177;-84
2021/12/02 04:48:58;;;;;;;2.37;1.20;;;;;;;;;;6166455;23;20178;-84
2021/12/02 04:51:26;;;;;;;1.17;1.00;;;;;;;;;;6165295;23;20187;-84
2021/12/02 04:53:54;;;;;;;1.77;1.10;;;;;;;;;;6166690;23;20209;-84
2021/12/02 04:56:22;;;;;;;1.07;0.97;;;;;;;;;;6166691;23;20187;-85
2021/12/02 04:58:49;;;;;;;1.40;1.30;;;;;;;;;;6177233;23;20159;-85
2021/12/02 05:04:58;;;;;;;0.83;0.83;;;;;;;;;;5984927;24;20171;-85
2021/12/02 05:35:16;;;;;;;1.93;1.00;;;;;;;;;;6098224;23;20187;-84
2021/12/02 06:28:07;;;;;;;1.10;1.00;;;;;;;;;;6157013;23;20686;-81
2021/12/02 06:30:35;;;;;;;0.70;0.70;;;;;;;;;;6156820;23;20190;-84
2021/12/02 06:33:02;;;;;;;1.03;0.93;;;;;;;;;;6155754;23;20178;-82
2021/12/02 06:35:30;;;;;;;1.57;1.20;;;;;;;;;;6157031;23;20175;-81
2021/12/02 06:38:00;;;;;;;2.60;2.40;;;;;;;;;;6155950;23;20170;-79
2021/12/02 06:40:29;;;;;;;1.30;1.20;;;;;;;;;;6157037;23;20682;-80
2021/12/02 06:42:56;;;;;;;1.63;1.53;;;;;;;;;;6156074;23;20205;-82
2021/12/02 06:45:24;;;;;;;1.10;1.00;;;;;;;;;;6158417;23;20171;-83
2021/12/02 06:47:53;;;;;;;1.90;0.80;;;;;;;;;;6162313;23;20178;-82
2021/12/02 06:50:21;;;;;;;1.00;0.97;;;;;;;;;;6156617;23;20196;-81
2021/12/02 06:52:52;;;;;;;0.90;0.80;;;;;;;;;;6156142;23;20194;-83
2021/12/02 06:55:20;;;;;;;0.90;0.90;;;;;;;;;;6156748;23;20163;-83
2021/12/02 06:57:49;;;;;;;0.97;0.90;;;;;;;;;;6156994;23;20186;-82
2021/12/02 07:00:17;;;;;;;2.10;1.10;;;;;;;;;;6157709;23;20203;-84
2021/12/02 07:02:53;;;;;;;1.20;0.90;;;;;;;;;;6162179;23;20245;-84
2021/12/02 07:05:23;;;;;;;1.00;1.00;;;;;;;;;;6166221;23;20186;-82
2021/12/02 07:07:54;;;;;;;1.60;1.50;;;;;;;;;;6164877;23;20243;-85
2021/12/02 07:10:30;;;;;;;0.97;0.90;;;;;;;;;;6159768;23;20241;-82
2021/12/02 07:13:00;;;;;;;0.80;0.80;;;;;;;;;;6158939;23;20225;-84
2021/12/02 07:15:30;;;;;;;1.00;0.90;;;;;;;;;;6158266;23;20246;-83
2021/12/02 07:18:01;;;;;;;0.80;0.80;;;;;;;;;;6157904;23;20174;-82
2021/12/02 07:20:30;;;;;;;1.00;1.00;;;;;;;;;;6157187;23;20266;-81
2021/12/02 07:22:57;;;;;;;1.13;1.00;;;;;;;;;;6157049;23;20183;-84
2021/12/02 07:25:35;;;;;;;0.73;0.73;;;;;;;;;;6157658;23;20241;-85
2021/12/02 07:28:04;;;;;;;1.40;1.00;;;;;;;;;;6159522;23;20245;-85
2021/12/02 07:30:40;;;;;;;1.00;1.00;;;;;;;;;;6160199;23;20190;-86
2021/12/02 07:33:09;;;;;;;1.00;1.00;;;;;;;;;;6160315;23;20198;-86
2021/12/02 07:35:39;;;;;;;1.00;1.00;;;;;;;;;;6156981;23;20198;-85
2021/12/02 07:38:09;;;;;;;1.10;1.00;;;;;;;;;;6155590;23;20182;-86
2021/12/02 07:40:39;;;;;;;1.00;1.00;;;;;;;;;;6157952;23;20199;-87
2021/12/02 07:43:08;;;;;;;1.43;1.00;;;;;;;;;;6155903;23;20178;-86
2021/12/02 07:45:36;;;;;;;2.30;1.00;;;;;;;;;;6157573;23;20176;-89
2021/12/02 07:48:05;;;;;;;1.83;1.20;;;;;;;;;;6155918;23;20178;-84
2021/12/02 07:50:34;;;;;;;1.30;1.20;;;;;;;;;;6157115;23;20190;-86
2021/12/02 07:53:02;;;;;;;1.37;1.27;;;;;;;;;;6155776;23;20171;-89
2021/12/02 07:55:30;;;;;;;1.23;1.00;;;;;;;;;;6159381;23;20171;-87
2021/12/02 07:57:58;;;;;;;1.13;1.03;;;;;;;;;;6158054;23;20178;-85
2021/12/02 08:00:27;;;;;;;1.13;1.10;;;;;;;;;;6157541;23;20195;-85
2021/12/02 08:02:55;;;;;;;1.10;1.00;;;;;;;;;;6157055;23;20206;-86
2021/12/02 08:05:23;;;;;;;2.17;1.37;;;;;;;;;;6157777;23;20179;-85
2021/12/02 08:07:51;;;;;;;1.30;1.20;;;;;;;;;;6158144;23;20175;-86
2021/12/02 08:10:19;;;;;;;1.23;1.13;;;;;;;;;;6159982;23;20245;-85
2021/12/02 08:12:50;;;;;;;1.00;1.00;;;;;;;;;;6159095;23;20357;-85
2021/12/02 08:15:20;;;;;;;0.90;0.90;;;;;;;;;;6157792;23;20167;-85
2021/12/02 08:17:50;;;;;;;1.20;1.10;;;;;;;;;;6159235;23;20171;-85
2021/12/02 08:20:20;;;;;;;1.37;1.27;;;;;;;;;;6159653;23;20195;-85
2021/12/02 08:22:47;;;;;;;1.17;1.07;;;;;;;;;;6158086;23;20186;-87
2021/12/02 08:25:15;;;;;;;1.13;1.03;;;;;;;;;;6158965;23;20175;-85
2021/12/02 08:27:47;;;;;;;2.40;1.10;;;;;;;;;;6158718;23;20186;-85
2021/12/02 08:30:19;;;;;;;2.03;1.13;;;;;;;;;;6160025;23;20194;-86
2021/12/02 08:32:46;;;;;;;1.50;1.10;;;;;;;;;;6159681;23;20214;-86
2021/12/02 08:35:18;;;;;;;1.07;1.00;;;;;;;;;;6160840;23;20174;-86
2021/12/02 08:37:47;;;;;;;1.20;1.10;;;;;;;;;;6158473;23;20174;-89
2021/12/02 08:40:17;;;;;;;1.00;0.90;;;;;;;;;;6153717;23;20246;-88
2021/12/02 08:42:45;;;;;;;1.10;1.10;;;;;;;;;;6155727;23;20197;-89
2021/12/02 08:45:12;;;;;;;1.20;1.10;;;;;;;;;;6155648;23;20171;-88
2021/12/02 08:47:46;;;;;;;2.00;1.40;;;;;;;;;;6156074;23;20174;-89
2021/12/02 08:50:14;;;;;;;1.20;1.10;;;;;;;;;;6155843;23;20190;-89
2021/12/02 08:52:43;;;;;;;1.77;1.30;;;;;;;;;;6155556;23;20171;-89
2021/12/02 08:55:19;;;;;;;1.20;1.10;;;;;;;;;;6156194;23;20194;-90
2021/12/02 08:58:03;;;;;;;1.30;1.20;;;;;;;;;;6158380;23;20186;-89
2021/12/02 09:00:46;;;;;;;2.03;1.00;;;;;;;;;;6156395;23;20210;-92
2021/12/02 09:03:19;;;;;;;1.20;1.10;;;;;;;;;;6157128;23;20174;-91
2021/12/02 09:05:50;;;;;;;1.27;1.17;;;;;;;;;;6156279;23;20171;-90
2021/12/02 09:08:30;;;;;;;1.77;1.10;;;;;;;;;;6156064;23;20178;-90
2021/12/02 09:10:59;;;;;;;1.43;1.17;;;;;;;;;;6155718;23;20298;-91
2021/12/02 09:13:26;;;;;;;2.20;1.30;;;;;;;;;;6156340;23;20185;-90
2021/12/02 09:16:02;;;;;;;1.40;1.30;;;;;;;;;;6155701;23;20171;-89
2021/12/02 09:18:29;;;;;;;2.23;1.50;;;;;;;;;;6157259;23;20186;-88
2021/12/02 09:20:59;;;;;;;2.27;1.50;;;;;;;;;;6155131;23;20194;-88
2021/12/02 09:23:28;;;;;;;1.40;1.27;;;;;;;;;;6155762;23;20257;-89
2021/12/02 09:25:59;;;;;;;2.43;1.40;;;;;;;;;;6156304;23;20185;-87
2021/12/02 09:28:27;;;;;;;1.97;1.57;;;;;;;;;;6155893;23;20174;-88
2021/12/02 09:30:54;;;;;;;1.70;1.60;;;;;;;;;;6155305;23;20194;-88
2021/12/02 09:33:22;;;;;;;1.67;1.50;;;;;;;;;;6156053;23;20245;-90
2021/12/02 09:35:52;;;;;;;1.60;1.50;;;;;;;;;;6155117;23;20171;-88
2021/12/02 09:38:19;;;;;;;1.60;1.50;;;;;;;;;;6156037;23;20175;-89
2021/12/02 09:40:50;;;;;;;1.80;1.70;;;;;;;;;;6156609;23;20199;-89
2021/12/02 09:43:18;;;;;;;2.60;1.77;;;;;;;;;;6155979;23;20174;-87
2021/12/02 09:45:45;;;;;;;2.53;1.50;;;;;;;;;;6156491;23;20182;-89
2021/12/02 09:48:14;;;;;;;1.97;1.77;;;;;;;;;;6156289;23;20178;-89
2021/12/02 09:50:52;;;;;;;3.73;1.90;;;;;;;;;;6156856;23;20635;-89
2021/12/02 09:53:22;;;;;;;2.73;2.20;;;;;;;;;;6160478;23;20171;-89
2021/12/02 09:55:56;;;;;;;5.40;2.20;;;;;;;;;;6165322;23;20171;-87
2021/12/02 10:01:38;;;;;;;2.70;1.97;;;;;;;;;;6128298;23;20277;-84
2021/12/02 10:04:06;;;;;;;2.10;1.90;;;;;;;;;;6162204;23;20170;-85
2021/12/02 10:06:33;;;;;;;4.70;1.63;;;;;;;;;;6164845;23;20178;-85
2021/12/02 10:09:10;;;;;;;1.67;1.50;;;;;;;;;;6160803;23;20178;-86
2021/12/02 10:11:50;;;;;;;1.63;1.20;;;;;;;;;;6156670;23;20195;-86
2021/12/02 10:14:22;;;;;;;1.23;1.13;;;;;;;;;;6156780;23;20166;-86
2021/12/02 10:16:51;;;;;;;1.73;1.37;;;;;;;;;;6158179;23;20197;-87
2021/12/02 10:19:25;;;;;;;1.67;1.37;;;;;;;;;;6158098;23;20178;-87
2021/12/02 10:21:55;;;;;;;1.43;1.10;;;;;;;;;;6156230;23;20203;-87
2021/12/02 10:24:25;;;;;;;2.80;1.40;;;;;;;;;;6157429;23;20353;-86
2021/12/02 10:26:55;;;;;;;1.73;1.40;;;;;;;;;;6156469;23;20189;-87
2021/12/02 10:29:23;;;;;;;2.73;1.70;;;;;;;;;;6154800;23;20226;-87
2021/12/02 10:32:05;;;;;;;2.97;1.77;;;;;;;;;;6155560;23;20198;-86
2021/12/02 10:34:35;;;;;;;1.80;1.70;;;;;;;;;;6156781;23;20163;-86
2021/12/02 10:37:11;;;;;;;3.23;2.13;;;;;;;;;;6156142;23;20171;-87
2021/12/02 10:39:38;;;;;;;2.13;1.90;;;;;;;;;;6155615;23;20166;-86
2021/12/02 10:42:08;;;;;;;2.33;1.80;;;;;;;;;;6154320;23;20209;-87
2021/12/02 10:44:41;;;;;;;4.50;2.17;;;;;;;;;;6155219;23;20237;-87
2021/12/02 10:47:19;;;;;;;2.53;2.10;;;;;;;;;;6155654;23;20174;-89
2021/12/02 10:49:50;;;;;;;2.90;2.70;;;;;;;;;;6155108;23;20166;-89
2021/12/02 10:52:18;;;;;;;3.83;3.00;;;;;;;;;;6152231;23;20167;-89
2021/12/02 10:54:47;;;;;;;2.60;2.40;;;;;;;;;;6153904;23;20254;-89
2021/12/02 10:57:17;;;;;;;2.60;2.40;;;;;;;;;;6154980;23;20199;-90
2021/12/02 10:59:46;;;;;;;3.67;2.20;;;;;;;;;;6154256;23;20304;-89
2021/12/02 11:02:18;;;;;;;2.23;2.03;;;;;;;;;;6155588;23;20386;-79
2021/12/02 11:04:47;;;;;;;3.13;2.10;;;;;;;;;;6159320;23;20205;-79
2021/12/02 11:07:20;;;;;;;2.70;2.07;;;;;;;;;;6160711;23;20225;-82
2021/12/02 11:09:51;;;;;;;3.60;2.27;;;;;;;;;;6159170;23;20226;-78
2021/12/02 11:12:21;;;;;;;3.60;2.97;;;;;;;;;;6158973;23;20190;-77
2021/12/02 11:15:15;;;;;;;2.53;2.20;;;;;;;;;;6157280;23;20198;-77
2021/12/02 11:17:44;;;;;;;4.93;2.47;;;;;;;;;;6144680;23;20193;-77
2021/12/02 11:20:13;;;;;;;4.00;2.90;;;;;;;;;;6155677;23;20174;-79
2021/12/02 11:22:40;;;;;;;6.00;2.73;;;;;;;;;;6155093;23;20195;-79
2021/12/02 11:25:09;;;;;;;4.57;2.53;;;;;;;;;;6158249;23;20257;-79
2021/12/02 11:27:39;;;;;;;3.00;2.30;;;;;;;;;;6156933;23;20224;-79
2021/12/02 11:30:07;;;;;;;3.87;2.53;;;;;;;;;;6156353;23;20174;-79
2021/12/02 11:32:36;;;;;;;3.10;2.80;;;;;;;;;;6158347;23;20242;-81
2021/12/02 11:35:15;;;;;;;4.00;2.90;;;;;;;;;;6158970;23;20190;-79
2021/12/02 11:37:43;;;;;;;5.37;3.30;;;;;;;;;;6160748;23;20155;-81
2021/12/02 11:40:12;;;;;;;3.30;3.00;;;;;;;;;;6161859;23;20175;-80
2021/12/02 11:42:41;;;;;;;5.67;3.33;;;;;;;;;;6163645;23;20218;-80
2021/12/02 11:45:09;;;;;;;4.07;3.30;;;;;;;;;;6159152;23;20174;-79
2021/12/02 11:47:36;;;;;;;4.90;3.23;;;;;;;;;;6161162;23;20182;-79
2021/12/02 11:50:06;;;;;;;4.60;3.70;;;;;;;;;;6158108;23;20659;-81
2021/12/02 11:52:35;;;;;;;4.33;3.70;;;;;;;;;;6157555;23;20186;-78
2021/12/02 11:55:03;;;;;;;5.27;3.57;;;;;;;;;;6156874;23;20178;-79
2021/12/02 11:57:33;;;;;;;5.70;3.87;;;;;;;;;;6156959;23;20201;-78
2021/12/02 12:00:04;;;;;;;4.83;3.47;;;;;;;;;;6155585;23;20155;-81
2021/12/02 12:02:31;;;;;;;4.60;3.60;;;;;;;;;;6153530;23;20226;-80
2021/12/02 12:05:01;;;;;;;4.77;3.47;;;;;;;;;;6155878;23;20205;-80
2021/12/02 12:08:01;;;;;;;4.60;4.03;;;;;;;;;;6156500;23;20190;-82
2021/12/02 12:10:31;;;;;;;6.17;4.00;;;;;;;;;;6150882;23;20202;-79
2021/12/02 12:13:28;;;;;;;5.90;4.10;;;;;;;;;;6155537;23;20178;-78
2021/12/02 12:15:58;;;;;;;7.83;4.23;;;;;;;;;;6065150;23;20168;-78
2021/12/02 12:18:43;;;;;;;7.57;4.47;;;;;;;;;;6137440;23;20241;-78
2021/12/02 12:21:11;;;;;;;6.03;4.27;;;;;;;;;;6157393;23;20245;-79
2021/12/02 12:23:43;;;;;;;6.27;4.37;;;;;;;;;;6157519;23;20211;-77
2021/12/02 12:26:18;;;;;;;7.33;4.63;;;;;;;;;;6157299;23;20186;-81
2021/12/02 12:29:00;;;;;;;8.07;5.27;;;;;;;;;;6158682;23;20168;-79
2021/12/02 12:31:29;;;;;;;7.47;5.00;;;;;;;;;;6138581;23;20266;-78
2021/12/02 12:33:59;;;;;;;7.47;4.97;;;;;;;;;;6158419;23;20241;-79
2021/12/02 12:36:36;;;;;;;9.27;6.00;;;;;;;;;;6157470;23;20178;-78
2021/12/02 12:39:18;;;;;;;7.73;5.73;;;;;;;;;;6158370;23;20197;-78
2021/12/02 12:42:07;;;;;;;7.80;5.50;;;;;;;;;;6156051;23;20277;-79
2021/12/02 12:44:46;;;;;;;7.13;5.27;;;;;;;;;;6156134;23;20171;-79
2021/12/02 12:47:16;;;;;;;7.00;5.73;;;;;;;;;;6156883;23;20197;-78
2021/12/02 12:49:45;;;;;;;7.20;5.23;;;;;;;;;;6156793;23;20171;-78
2021/12/02 12:52:16;;;;;;;6.43;4.80;;;;;;;;;;6155875;23;20201;-78
2021/12/02 12:54:43;;;;;;;5.83;4.70;;;;;;;;;;6157018;23;20198;-78
2021/12/02 12:57:10;;;;;;;5.57;4.23;;;;;;;;;;6156425;23;20648;-79
2021/12/02 12:59:49;;;;;;;5.73;4.33;;;;;;;;;;6157483;23;20170;-81
2021/12/02 13:02:18;;;;;;;5.27;3.97;;;;;;;;;;6153656;23;20285;-79
2021/12/02 13:04:51;;;;;;;6.50;4.13;;;;;;;;;;6152194;23;20178;-83
2021/12/02 13:07:19;;;;;;;4.33;3.40;;;;;;;;;;6159558;23;20171;-80
2021/12/02 13:09:52;;;;;;;4.73;3.40;;;;;;;;;;6160779;23;20194;-79
2021/12/02 13:12:21;;;;;;;4.90;3.87;;;;;;;;;;6159202;23;20238;-79
2021/12/02 13:14:52;;;;;;;3.90;3.23;;;;;;;;;;6158008;23;20205;-79
2021/12/02 13:17:38;;;;;;;3.77;3.03;;;;;;;;;;6157692;23;20174;-78
2021/12/02 13:20:16;;;;;;;4.27;3.10;;;;;;;;;;6156160;23;20202;-76
2021/12/02 13:22:44;;;;;;;3.67;3.27;;;;;;;;;;6154597;23;20214;-76
2021/12/02 13:25:24;;;;;;;3.83;3.10;;;;;;;;;;6160478;23;20171;-78
2021/12/02 13:27:52;;;;;;;5.20;2.83;;;;;;;;;;6156868;23;20186;-77
2021/12/02 13:30:19;;;;;;;3.30;2.97;;;;;;;;;;6160544;23;20283;-79
2021/12/02 13:32:49;;;;;;;2.63;2.43;;;;;;;;;;6156862;23;20174;-78
2021/12/02 13:35:26;;;;;;;4.87;2.77;;;;;;;;;;6155733;23;20286;-76
2021/12/02 13:38:02;;;;;;;2.87;2.67;;;;;;;;;;6154628;23;20174;-76
2021/12/02 13:40:34;;;;;;;2.80;2.30;;;;;;;;;;6155150;23;20162;-77
2021/12/02 13:43:01;;;;;;;3.37;2.50;;;;;;;;;;6155530;23;20185;-77
2021/12/02 13:45:29;;;;;;;3.07;2.53;;;;;;;;;;6157033;23;20182;-80
2021/12/02 13:48:10;;;;;;;3.37;2.43;;;;;;;;;;6157345;23;20218;-78
2021/12/02 13:50:40;;;;;;;2.70;2.20;;;;;;;;;;6155692;23;20245;-78
2021/12/02 13:53:09;;;;;;;2.23;1.70;;;;;;;;;;6156301;23;20178;-78
2021/12/02 13:55:38;;;;;;;3.03;1.90;;;;;;;;;;6156696;23;20205;-79
2021/12/02 13:58:08;;;;;;;2.83;2.10;;;;;;;;;;6157239;23;20174;-79
2021/12/02 14:00:36;;;;;;;3.23;2.17;;;;;;;;;;6159602;23;20214;-82
2021/12/02 14:03:04;;;;;;;2.93;2.00;;;;;;;;;;6157284;23;20745;-81
2021/12/02 14:05:32;;;;;;;2.80;1.70;;;;;;;;;;6158328;23;20178;-81
2021/12/02 14:08:03;;;;;;;3.90;2.20;;;;;;;;;;6159589;23;20175;-81
2021/12/02 14:10:31;;;;;;;4.33;2.80;;;;;;;;;;6158688;23;20174;-82
2021/12/02 14:13:00;;;;;;;3.90;2.60;;;;;;;;;;6156981;23;20186;-81
2021/12/02 14:15:28;;;;;;;4.33;2.83;;;;;;;;;;6157820;23;20214;-81
2021/12/02 14:17:57;;;;;;;3.20;2.60;;;;;;;;;;6158142;23;20171;-81
2021/12/02 14:20:25;;;;;;;4.87;2.40;;;;;;;;;;6157460;23;20175;-80
2021/12/02 14:22:54;;;;;;;4.97;2.60;;;;;;;;;;6157971;23;20206;-79
2021/12/02 14:25:27;;;;;;;6.07;2.93;;;;;;;;;;6155927;23;20190;-80
2021/12/02 14:28:07;;;;;;;5.63;2.90;;;;;;;;;;6156877;23;20176;-79
2021/12/02 14:30:37;;;;;;;3.33;3.00;;;;;;;;;;6157432;23;20200;-78
2021/12/02 14:33:06;;;;;;;6.47;3.13;;;;;;;;;;6157123;23;20163;-79
2021/12/02 14:35:42;;;;;;;6.93;3.27;;;;;;;;;;6157236;23;20175;-79
2021/12/02 14:38:16;;;;;;;4.83;4.03;;;;;;;;;;6156753;23;20170;-79
2021/12/02 14:40:47;;;;;;;5.00;4.20;;;;;;;;;;6156500;23;20252;-79
2021/12/02 14:43:18;;;;;;;6.37;4.30;;;;;;;;;;6156700;23;20242;-79
2021/12/02 14:45:46;;;;;;;5.67;4.80;;;;;;;;;;6156091;23;20250;-79
2021/12/02 14:48:26;;;;;;;7.10;4.67;;;;;;;;;;6157677;23;20189;-79
2021/12/02 14:51:02;;;;;;;8.13;5.23;;;;;;;;;;6157357;23;20241;-80
2021/12/02 14:53:30;;;;;;;7.87;5.43;;;;;;;;;;6156755;23;20174;-79
2021/12/02 14:56:04;;;;;;;6.87;5.30;;;;;;;;;;6157762;23;20174;-80
2021/12/02 14:58:32;;;;;;;7.90;5.07;;;;;;;;;;6156307;23;20181;-78
2021/12/02 15:01:10;;;;;;;6.93;5.00;;;;;;;;;;6155165;23;20202;-76
2021/12/02 15:03:37;;;;;;;6.47;4.07;;;;;;;;;;6155501;23;20213;-80
2021/12/02 15:06:04;;;;;;;5.67;3.90;;;;;;;;;;6157568;23;20185;-80
2021/12/02 15:08:33;;;;;;;4.73;4.00;;;;;;;;;;6156466;23;20658;-80
2021/12/02 15:11:02;;;;;;;5.10;3.43;;;;;;;;;;6155110;23;20261;-80
2021/12/02 15:13:41;;;;;;;4.57;3.40;;;;;;;;;;6156215;23;20197;-80
2021/12/02 15:16:09;;;;;;;7.00;3.93;;;;;;;;;;6164623;23;20174;-77
2021/12/02 15:18:36;;;;;;;4.03;3.20;;;;;;;;;;6161545;23;20171;-79
2021/12/02 15:21:03;;;;;;;3.77;2.70;;;;;;;;;;6160110;23;20274;-77
2021/12/02 15:23:33;;;;;;;3.37;2.37;;;;;;;;;;6161081;23;20245;-77
2021/12/02 15:26:03;;;;;;;2.80;2.60;;;;;;;;;;6156065;23;20181;-77
2021/12/02 15:28:32;;;;;;;4.50;2.70;;;;;;;;;;6155828;23;20175;-77
2021/12/02 15:31:01;;;;;;;2.67;2.33;;;;;;;;;;6155405;23;20194;-78
2021/12/02 15:33:30;;;;;;;3.50;3.20;;;;;;;;;;6155487;23;20623;-80
2021/12/02 15:35:58;;;;;;;3.23;2.47;;;;;;;;;;6159107;23;20175;-80
2021/12/02 15:38:26;;;;;;;7.73;3.47;;;;;;;;;;6159879;23;20179;-78
2021/12/02 15:40:54;;;;;;;3.63;3.33;;;;;;;;;;6160856;23;20251;-77
2021/12/02 15:43:25;;;;;;;7.40;2.40;;;;;;;;;;6159664;23;20281;-81
2021/12/02 15:45:54;;;;;;;3.73;2.60;;;;;;;;;;6159303;23;20203;-77
2021/12/02 15:48:21;;;;;;;3.93;2.47;;;;;;;;;;6160631;23;20212;-77
2021/12/02 15:50:48;;;;;;;3.27;2.17;;;;;;;;;;6156970;23;20272;-78
2021/12/02 15:53:17;;;;;;;2.80;2.60;;;;;;;;;;6154918;23;20639;-78
2021/12/02 15:55:45;;;;;;;3.63;2.47;;;;;;;;;;6155030;23;20167;-78
2021/12/02 15:58:14;;;;;;;5.37;3.00;;;;;;;;;;6155238;23;20175;-77
2021/12/02 16:00:45;;;;;;;3.57;2.60;;;;;;;;;;6154880;23;20206;-78
2021/12/02 16:03:19;;;;;;;4.37;2.40;;;;;;;;;;6154561;23;20196;-78
2021/12/02 16:08:41;;;;;;;3.43;2.57;;;;;;;;;;6139019;23;20170;-77
2021/12/02 16:11:22;;;;;;;4.13;2.60;;;;;;;;;;6155150;23;20223;-77
2021/12/02 16:13:49;;;;;;;2.57;2.37;;;;;;;;;;6155344;23;20641;-77
2021/12/02 16:16:17;;;;;;;4.07;2.57;;;;;;;;;;6155773;23;20174;-77
2021/12/02 16:18:46;;;;;;;4.20;2.50;;;;;;;;;;6155252;23;20190;-76
2021/12/02 16:21:13;;;;;;;5.23;3.00;;;;;;;;;;6152911;23;20198;-77
2021/12/02 16:23:42;;;;;;;5.30;2.67;;;;;;;;;;6155553;23;20187;-78
2021/12/02 16:26:09;;;;;;;4.70;3.10;;;;;;;;;;6155931;23;20182;-78
2021/12/02 16:28:38;;;;;;;4.03;3.10;;;;;;;;;;6155907;23;20234;-78
2021/12/02 16:31:05;;;;;;;6.33;5.40;;;;;;;;;;6160785;23;20278;-77
2021/12/02 16:33:33;;;;;;;5.23;4.47;;;;;;;;;;6164910;23;20171;-77